sensor_id;sensor_type;location;lat;lon;timestamp;pressure;altitude;pressure_sealevel;temperature;humidity
33286;BME280;19656;50.096;20.014;2023-02-21T00:01:00;98264.34;;;11.29;54.72
33286;BME280;19656;50.096;20.014;2023-02-21T00:07:49;98267.11;;;11.21;54.96
33286;BME280;19656;50.096;20.014;2023-02-21T00:13:28;98273.92;;;11.25;54.92
33286;BME280;19656;50.096;20.014;2023-02-21T00:19:21;98266.83;;;11.27;54.77
33286;BME280;19656;50.096;20.014;2023-02-21T00:25:16;98269.41;;;11.26;54.50
33286;BME280;19656;50.096;20.014;2023-02-21T00:37:30;98267.48;;;11.25;54.96
33286;BME280;19656;50.096;20.014;2023-02-21T00:43:39;98270.11;;;11.21;55.22
33286;BME280;19656;50.096;20.014;2023-02-21T00:49:37;98260.93;;;11.18;55.35
33286;BME280;19656;50.096;20.014;2023-02-21T00:55:28;98264.69;;;11.18;55.67
33286;BME280;19656;50.096;20.014;2023-02-21T01:07:21;98265.28;;;11.26;55.01
33286;BME280;19656;50.096;20.014;2023-02-21T01:13:29;98249.58;;;11.29;54.66
33286;BME280;19656;50.096;20.014;2023-02-21T01:18:54;98248.19;;;11.31;54.34
33286;BME280;19656;50.096;20.014;2023-02-21T01:24:27;98241.67;;;11.30;54.32
33286;BME280;19656;50.096;20.014;2023-02-21T01:30:30;98243.39;;;11.29;54.44
33286;BME280;19656;50.096;20.014;2023-02-21T01:36:26;98243.20;;;11.29;54.56
33286;BME280;19656;50.096;20.014;2023-02-21T01:42:38;98249.56;;;11.21;54.87
33286;BME280;19656;50.096;20.014;2023-02-21T01:47:37;98240.73;;;11.20;54.90
33286;BME280;19656;50.096;20.014;2023-02-21T01:53:30;98233.45;;;11.20;55.38
33286;BME280;19656;50.096;20.014;2023-02-21T01:59:12;98228.83;;;11.20;55.10
33286;BME280;19656;50.096;20.014;2023-02-21T02:04:46;98230.84;;;11.17;54.96
33286;BME280;19656;50.096;20.014;2023-02-21T02:11:19;98233.74;;;11.14;54.82
33286;BME280;19656;50.096;20.014;2023-02-21T02:40:42;98232.55;;;11.00;57.60
33286;BME280;19656;50.096;20.014;2023-02-21T02:46:29;98239.10;;;10.81;60.31
33286;BME280;19656;50.096;20.014;2023-02-21T02:51:48;98238.60;;;10.57;62.08
33286;BME280;19656;50.096;20.014;2023-02-21T03:10:49;98242.77;;;10.41;64.07
33286;BME280;19656;50.096;20.014;2023-02-21T03:21:35;98239.06;;;10.34;65.04
33286;BME280;19656;50.096;20.014;2023-02-21T03:26:48;98240.49;;;10.36;65.15
33286;BME280;19656;50.096;20.014;2023-02-21T03:38:52;98243.93;;;10.23;66.57
33286;BME280;19656;50.096;20.014;2023-02-21T03:44:11;98248.42;;;10.17;67.61
33286;BME280;19656;50.096;20.014;2023-02-21T03:49:28;98243.64;;;10.15;67.90
33286;BME280;19656;50.096;20.014;2023-02-21T03:54:41;98248.75;;;10.20;68.05
33286;BME280;19656;50.096;20.014;2023-02-21T04:00:31;98246.02;;;10.21;68.52
33286;BME280;19656;50.096;20.014;2023-02-21T04:05:41;98243.03;;;10.16;69.00
33286;BME280;19656;50.096;20.014;2023-02-21T04:10:49;98246.38;;;10.11;69.25
33286;BME280;19656;50.096;20.014;2023-02-21T04:16:06;98238.48;;;10.05;69.42
33286;BME280;19656;50.096;20.014;2023-02-21T04:21:41;98243.99;;;10.14;69.63
33286;BME280;19656;50.096;20.014;2023-02-21T04:49:10;98251.47;;;10.09;70.73
33286;BME280;19656;50.096;20.014;2023-02-21T04:54:25;98252.29;;;10.06;71.15
33286;BME280;19656;50.096;20.014;2023-02-21T05:00:18;98246.85;;;10.07;71.25
33286;BME280;19656;50.096;20.014;2023-02-21T05:05:00;98242.60;;;9.98;71.72
33286;BME280;19656;50.096;20.014;2023-02-21T05:10:24;98245.69;;;9.94;72.24
33286;BME280;19656;50.096;20.014;2023-02-21T05:16:17;98237.91;;;9.96;72.28
33286;BME280;19656;50.096;20.014;2023-02-21T05:27:09;98232.20;;;10.04;72.58
33286;BME280;19656;50.096;20.014;2023-02-21T05:32:33;98230.77;;;10.00;72.65
33286;BME280;19656;50.096;20.014;2023-02-21T05:37:48;98216.49;;;9.93;72.99
33286;BME280;19656;50.096;20.014;2023-02-21T05:43:22;98217.10;;;9.95;72.95
33286;BME280;19656;50.096;20.014;2023-02-21T05:49:19;98209.48;;;9.87;73.21
33286;BME280;19656;50.096;20.014;2023-02-21T06:01:20;98216.93;;;9.82;73.91
33286;BME280;19656;50.096;20.014;2023-02-21T06:07:05;98222.55;;;9.78;73.20
33286;BME280;19656;50.096;20.014;2023-02-21T06:12:41;98234.86;;;9.69;73.66
33286;BME280;19656;50.096;20.014;2023-02-21T06:17:51;98233.96;;;9.69;73.37
33286;BME280;19656;50.096;20.014;2023-02-21T06:29:47;98261.63;;;9.77;73.00
33286;BME280;19656;50.096;20.014;2023-02-21T06:35:40;98268.08;;;9.68;73.02
33286;BME280;19656;50.096;20.014;2023-02-21T06:41:17;98277.56;;;9.72;73.26
33286;BME280;19656;50.096;20.014;2023-02-21T07:14:09;98275.14;;;9.91;72.50
33286;BME280;19656;50.096;20.014;2023-02-21T07:20:03;98280.02;;;9.85;72.52
33286;BME280;19656;50.096;20.014;2023-02-21T07:31:49;98304.30;;;9.77;72.85
33286;BME280;19656;50.096;20.014;2023-02-21T07:37:35;98300.02;;;9.85;72.84
33286;BME280;19656;50.096;20.014;2023-02-21T07:43:32;98301.30;;;9.99;72.35
33286;BME280;19656;50.096;20.014;2023-02-21T07:48:59;98283.82;;;10.11;72.00
33286;BME280;19656;50.096;20.014;2023-02-21T08:05:48;98294.80;;;10.26;71.59
33286;BME280;19656;50.096;20.014;2023-02-21T08:17:50;98307.84;;;10.16;71.81
33286;BME280;19656;50.096;20.014;2023-02-21T08:23:23;98309.84;;;10.18;72.01
33286;BME280;19656;50.096;20.014;2023-02-21T08:29:08;98314.23;;;10.21;71.99
33286;BME280;19656;50.096;20.014;2023-02-21T08:34:43;98315.70;;;10.26;71.48
33286;BME280;19656;50.096;20.014;2023-02-21T08:40:25;98329.96;;;10.20;71.63
33286;BME280;19656;50.096;20.014;2023-02-21T08:46:02;98333.29;;;10.15;72.07
33286;BME280;19656;50.096;20.014;2023-02-21T08:58:53;98337.41;;;10.33;71.65
33286;BME280;19656;50.096;20.014;2023-02-21T09:04:00;98336.77;;;10.36;71.55
33286;BME280;19656;50.096;20.014;2023-02-21T09:09:03;98336.61;;;10.31;71.28
33286;BME280;19656;50.096;20.014;2023-02-21T09:14:12;98345.82;;;10.36;70.95
33286;BME280;19656;50.096;20.014;2023-02-21T09:19:19;98345.10;;;10.56;70.81
33286;BME280;19656;50.096;20.014;2023-02-21T09:30:19;98348.94;;;10.72;69.66
33286;BME280;19656;50.096;20.014;2023-02-21T09:41:45;98360.59;;;10.84;70.02
33286;BME280;19656;50.096;20.014;2023-02-21T09:47:32;98367.01;;;10.91;69.55
33286;BME280;19656;50.096;20.014;2023-02-21T09:53:21;98350.13;;;11.05;69.04
33286;BME280;19656;50.096;20.014;2023-02-21T09:58:43;98362.44;;;11.24;68.91
33286;BME280;19656;50.096;20.014;2023-02-21T10:04:16;98379.57;;;11.25;68.16
33286;BME280;19656;50.096;20.014;2023-02-21T10:09:43;98383.67;;;11.10;68.81
33286;BME280;19656;50.096;20.014;2023-02-21T10:21:10;98380.27;;;11.20;67.25
33286;BME280;19656;50.096;20.014;2023-02-21T10:26:24;98377.83;;;11.36;66.80
33286;BME280;19656;50.096;20.014;2023-02-21T10:31:35;98374.22;;;11.67;65.25
33286;BME280;19656;50.096;20.014;2023-02-21T10:36:44;98373.05;;;11.84;63.98
33286;BME280;19656;50.096;20.014;2023-02-21T10:42:01;98377.92;;;12.09;61.98
33286;BME280;19656;50.096;20.014;2023-02-21T10:53:33;98380.80;;;12.35;59.89
33286;BME280;19656;50.096;20.014;2023-02-21T10:58:46;98385.98;;;12.33;58.01
33286;BME280;19656;50.096;20.014;2023-02-21T11:04:44;98392.15;;;12.24;58.25
33286;BME280;19656;50.096;20.014;2023-02-21T11:09:43;98402.19;;;12.12;59.08
33286;BME280;19656;50.096;20.014;2023-02-21T11:26:11;98428.67;;;11.54;63.24
33286;BME280;19656;50.096;20.014;2023-02-21T11:31:48;98435.65;;;11.37;64.03
33286;BME280;19656;50.096;20.014;2023-02-21T11:37:11;98438.92;;;11.17;65.20
33286;BME280;19656;50.096;20.014;2023-02-21T11:42:38;98433.29;;;11.11;65.86
33286;BME280;19656;50.096;20.014;2023-02-21T11:48:14;98431.44;;;11.10;65.57
33286;BME280;19656;50.096;20.014;2023-02-21T11:54:10;98435.02;;;11.05;63.88
33286;BME280;19656;50.096;20.014;2023-02-21T12:06:11;98443.28;;;10.89;64.24
33286;BME280;19656;50.096;20.014;2023-02-21T12:17:30;98448.36;;;11.02;64.32
33286;BME280;19656;50.096;20.014;2023-02-21T12:23:43;98435.44;;;11.11;64.74
33286;BME280;19656;50.096;20.014;2023-02-21T12:41:30;98438.13;;;11.23;65.15
33286;BME280;19656;50.096;20.014;2023-02-21T12:52:50;98444.40;;;11.39;65.46
33286;BME280;19656;50.096;20.014;2023-02-21T12:58:47;98438.16;;;11.42;65.22
33286;BME280;19656;50.096;20.014;2023-02-21T13:10:24;98423.10;;;12.04;63.42
33286;BME280;19656;50.096;20.014;2023-02-21T13:15:41;98429.41;;;12.32;59.32
33286;BME280;19656;50.096;20.014;2023-02-21T13:21:56;98422.44;;;12.60;57.97
33286;BME280;19656;50.096;20.014;2023-02-21T13:26:57;98412.30;;;12.88;57.56
33286;BME280;19656;50.096;20.014;2023-02-21T13:32:28;98415.98;;;13.13;55.70
33286;BME280;19656;50.096;20.014;2023-02-21T13:37:55;98418.66;;;13.32;55.47
33286;BME280;19656;50.096;20.014;2023-02-21T14:00:52;98447.25;;;12.96;54.03
33286;BME280;19656;50.096;20.014;2023-02-21T14:11:27;98449.27;;;12.62;55.24
33286;BME280;19656;50.096;20.014;2023-02-21T14:17:30;98451.31;;;12.57;55.58
33286;BME280;19656;50.096;20.014;2023-02-21T14:23:07;98455.84;;;12.49;56.15
33286;BME280;19656;50.096;20.014;2023-02-21T14:34:58;98468.03;;;12.25;57.43
33286;BME280;19656;50.096;20.014;2023-02-21T14:46:09;98481.96;;;12.13;58.72
33286;BME280;19656;50.096;20.014;2023-02-21T15:08:21;98491.05;;;12.01;58.96
33286;BME280;19656;50.096;20.014;2023-02-21T15:13:39;98497.12;;;11.99;58.76
33286;BME280;19656;50.096;20.014;2023-02-21T15:19:18;98499.59;;;11.92;58.76
33286;BME280;19656;50.096;20.014;2023-02-21T15:24:36;98506.48;;;11.85;58.71
33286;BME280;19656;50.096;20.014;2023-02-21T15:36:16;98498.05;;;11.94;59.14
33286;BME280;19656;50.096;20.014;2023-02-21T15:41:50;98503.86;;;11.92;59.45
33286;BME280;19656;50.096;20.014;2023-02-21T15:47:27;98507.02;;;11.92;59.39
33286;BME280;19656;50.096;20.014;2023-02-21T15:52:47;98511.61;;;11.86;57.43
33286;BME280;19656;50.096;20.014;2023-02-21T16:04:14;98524.41;;;11.61;55.65
33286;BME280;19656;50.096;20.014;2023-02-21T16:09:23;98528.43;;;11.51;55.57
33286;BME280;19656;50.096;20.014;2023-02-21T16:20:57;98539.86;;;11.45;56.47
33286;BME280;19656;50.096;20.014;2023-02-21T16:32:08;98551.27;;;11.34;57.17
33286;BME280;19656;50.096;20.014;2023-02-21T16:37:37;98557.02;;;11.34;57.07
33286;BME280;19656;50.096;20.014;2023-02-21T16:48:27;98566.95;;;11.27;56.67
33286;BME280;19656;50.096;20.014;2023-02-21T16:53:38;98575.64;;;11.34;57.27
33286;BME280;19656;50.096;20.014;2023-02-21T16:59:03;98579.66;;;11.37;56.35
33286;BME280;19656;50.096;20.014;2023-02-21T17:04:51;98594.77;;;11.30;56.12
33286;BME280;19656;50.096;20.014;2023-02-21T17:10:27;98602.44;;;11.27;56.43
33286;BME280;19656;50.096;20.014;2023-02-21T17:15:55;98613.26;;;11.27;56.19
33286;BME280;19656;50.096;20.014;2023-02-21T17:21:08;98620.99;;;11.23;56.25
33286;BME280;19656;50.096;20.014;2023-02-21T17:26:35;98622.36;;;11.27;56.37
33286;BME280;19656;50.096;20.014;2023-02-21T17:37:12;98640.35;;;11.19;56.06
33286;BME280;19656;50.096;20.014;2023-02-21T17:47:51;98647.06;;;11.19;56.28
33286;BME280;19656;50.096;20.014;2023-02-21T17:53:31;98649.80;;;11.23;56.37
33286;BME280;19656;50.096;20.014;2023-02-21T18:04:26;98659.95;;;11.25;56.76
33286;BME280;19656;50.096;20.014;2023-02-21T18:16:14;98669.16;;;11.35;56.80
33286;BME280;19656;50.096;20.014;2023-02-21T18:21:33;98680.30;;;11.28;56.57
33286;BME280;19656;50.096;20.014;2023-02-21T18:27:16;98689.45;;;11.17;56.55
33286;BME280;19656;50.096;20.014;2023-02-21T18:32:50;98696.22;;;11.09;56.93
33286;BME280;19656;50.096;20.014;2023-02-21T18:37:54;98701.56;;;11.04;57.40
33286;BME280;19656;50.096;20.014;2023-02-21T18:43:15;98709.02;;;11.01;57.29
33286;BME280;19656;50.096;20.014;2023-02-21T18:48:49;98710.22;;;11.06;56.75
33286;BME280;19656;50.096;20.014;2023-02-21T19:05:52;98733.95;;;10.82;57.14
33286;BME280;19656;50.096;20.014;2023-02-21T19:11:06;98737.02;;;10.78;56.44
33286;BME280;19656;50.096;20.014;2023-02-21T19:16:19;98742.07;;;10.72;56.25
33286;BME280;19656;50.096;20.014;2023-02-21T19:22:04;98750.13;;;10.79;55.82
33286;BME280;19656;50.096;20.014;2023-02-21T19:28:02;98756.98;;;10.77;55.36
33286;BME280;19656;50.096;20.014;2023-02-21T19:40:25;98780.68;;;10.54;55.75
33286;BME280;19656;50.096;20.014;2023-02-21T19:45:40;98784.39;;;10.54;55.31
33286;BME280;19656;50.096;20.014;2023-02-21T19:51:28;98784.70;;;10.44;54.98
33286;BME280;19656;50.096;20.014;2023-02-21T19:56:45;98797.28;;;10.33;54.57
33286;BME280;19656;50.096;20.014;2023-02-21T20:07:44;98816.26;;;10.31;53.64
33286;BME280;19656;50.096;20.014;2023-02-21T20:12:58;98819.88;;;10.18;53.78
33286;BME280;19656;50.096;20.014;2023-02-21T20:18:43;98829.95;;;10.05;54.10
33286;BME280;19656;50.096;20.014;2023-02-21T20:24:30;98833.00;;;9.90;53.80
33286;BME280;19656;50.096;20.014;2023-02-21T20:29:44;98839.89;;;9.79;53.72
33286;BME280;19656;50.096;20.014;2023-02-21T20:35:56;98842.77;;;9.70;54.25
33286;BME280;19656;50.096;20.014;2023-02-21T20:41:38;98847.05;;;9.66;54.32
33286;BME280;19656;50.096;20.014;2023-02-21T20:53:24;98851.00;;;9.65;54.02
33286;BME280;19656;50.096;20.014;2023-02-21T20:59:09;98856.98;;;9.63;53.99
33286;BME280;19656;50.096;20.014;2023-02-21T21:10:39;98859.71;;;9.70;53.55
33286;BME280;19656;50.096;20.014;2023-02-21T21:16:02;98860.98;;;9.70;53.35
33286;BME280;19656;50.096;20.014;2023-02-21T21:21:39;98863.80;;;9.65;53.46
33286;BME280;19656;50.096;20.014;2023-02-21T21:39:53;98876.08;;;9.55;53.24
33286;BME280;19656;50.096;20.014;2023-02-21T21:51:26;98877.77;;;9.45;52.85
33286;BME280;19656;50.096;20.014;2023-02-21T21:56:58;98881.48;;;9.41;53.32
33286;BME280;19656;50.096;20.014;2023-02-21T22:02:29;98886.41;;;9.42;53.02
33286;BME280;19656;50.096;20.014;2023-02-21T22:14:27;98891.77;;;9.33;53.43
33286;BME280;19656;50.096;20.014;2023-02-21T22:20:01;98890.95;;;9.28;53.65
33286;BME280;19656;50.096;20.014;2023-02-21T22:25:41;98895.35;;;9.26;53.74
33286;BME280;19656;50.096;20.014;2023-02-21T22:31:56;98897.19;;;9.24;53.47
33286;BME280;19656;50.096;20.014;2023-02-21T22:43:57;98904.98;;;9.13;53.33
33286;BME280;19656;50.096;20.014;2023-02-21T23:00:30;98920.89;;;9.04;53.45
33286;BME280;19656;50.096;20.014;2023-02-21T23:43:48;98954.96;;;8.81;54.52
33286;BME280;19656;50.096;20.014;2023-02-21T23:49:17;98957.61;;;8.74;54.66
33286;BME280;19656;50.096;20.014;2023-02-21T23:55:21;98958.80;;;8.71;54.64
